Memphis, Texas
Current Conditions -  °F | °C
As of 2:53 PM on Tuesday 25 Nov 2014 (Local Time) from KCDS Reporting Station
Clear Clear  
Wind Chill: 58°   Ceiling: Unl
Heat Index: 58°   Visibility: 10mi
Dew Point: 13°   Wind: 15mph
Humidity: 17%   Direction: 240°WSW
Pressure: 30.13"   Gusts: 26mph
Location:  34.72°N, 100.53°W
Report Text: KCDS 252053Z AUTO 24013G23KT 10SM CLR 14/M11 A3013 RMK AO2 SLP200 T01441106 56051
Loading
Personal Weather Stations






























Interactive Weather Map New forecast layout! Learn more

10-Day Weather Forecast

Advertisements
Track Severe Weather on mobile